Terminal Aerodrome Forecast
Issued by NWS Wilmington, OH

Current Version | Previous Version | Text Only | Print | Product List | Glossary Off
Versions: 1 2 3 4 5 6 7 8 9 10 11 12 13 14 15 16 17 18 19

000
FTUS41 KILN 181133
TAFDAY
TAF
KDAY 181133Z 1812/1912 VRB03KT P6SM BKN090
     FM181400 20005KT P6SM VCSH SCT040 BKN090
     FM181800 19006KT P6SM VCTS SCT040CB BKN090
     FM190000 VRB03KT P6SM BKN090
     FM190800 20004KT P6SM VCSH SCT040 BKN090=

USA.gov is the U.S. government's official web portal to all federal, state and local government web resources and services.